createdAt,value
2022-09-16T00:00:21.955Z,9.00
2022-09-16T00:01:22.032Z,9.20
2022-09-16T00:02:21.966Z,9.90
2022-09-16T00:03:21.928Z,10.00
2022-09-16T00:04:21.905Z,9.40
2022-09-16T00:05:21.906Z,9.40
2022-09-16T00:06:21.885Z,8.70
2022-09-16T00:07:21.869Z,9.40
2022-09-16T00:08:21.866Z,9.10
2022-09-16T00:09:22.827Z,10.00
2022-09-16T00:10:21.818Z,9.40
2022-09-16T00:11:21.818Z,10.20
2022-09-16T00:12:21.806Z,9.30
2022-09-16T00:13:21.785Z,9.70
2022-09-16T00:14:21.767Z,9.80
2022-09-16T00:15:21.747Z,10.20
2022-09-16T00:16:21.808Z,9.50
2022-09-16T00:17:21.747Z,10.10
2022-09-16T00:18:21.720Z,8.60
2022-09-16T00:19:22.689Z,9.50
2022-09-16T00:20:21.705Z,9.50
2022-09-16T00:21:21.686Z,9.10
2022-09-16T00:22:21.678Z,9.60
2022-09-16T00:23:21.652Z,9.60
2022-09-16T00:24:21.637Z,9.30
2022-09-16T00:25:21.608Z,8.60
2022-09-16T00:26:21.632Z,8.70
2022-09-16T00:27:21.597Z,8.50
2022-09-16T00:28:21.593Z,8.60
2022-09-16T00:29:21.569Z,8.80
2022-09-16T00:30:22.570Z,8.70
2022-09-16T00:31:21.590Z,9.00
2022-09-16T00:32:21.554Z,8.00
2022-09-16T00:33:21.510Z,9.30
2022-09-16T00:34:21.512Z,9.30
2022-09-16T00:35:21.492Z,8.30
2022-09-16T00:36:21.489Z,9.00
2022-09-16T00:37:21.472Z,8.70
2022-09-16T00:38:21.452Z,8.80
2022-09-16T00:39:21.436Z,9.10
2022-09-16T00:40:21.483Z,9.10
2022-09-16T00:41:21.440Z,9.10
2022-09-16T00:42:21.410Z,9.10
2022-09-16T00:43:21.394Z,8.20
2022-09-16T00:44:21.378Z,8.50
2022-09-16T00:45:21.361Z,8.50
2022-09-16T00:46:21.454Z,8.30
2022-09-16T00:47:21.341Z,7.30
2022-09-16T00:48:21.340Z,8.30
2022-09-16T00:49:21.312Z,7.80
2022-09-16T00:50:21.303Z,8.60
2022-09-16T00:51:21.292Z,8.90
2022-09-16T00:52:21.304Z,9.00
2022-09-16T00:53:21.293Z,8.90
2022-09-16T00:54:21.254Z,8.90
2022-09-16T00:55:21.255Z,8.40
2022-09-16T00:56:21.223Z,8.30
2022-09-16T00:57:21.211Z,8.30
2022-09-16T00:58:21.207Z,8.40
2022-09-16T00:59:21.199Z,8.70
2022-09-16T01:00:21.175Z,9.00
2022-09-16T01:01:21.229Z,8.80
2022-09-16T01:02:21.240Z,8.90
2022-09-16T01:03:21.123Z,9.00
2022-09-16T01:04:21.126Z,8.90
2022-09-16T01:05:21.138Z,9.30
2022-09-16T01:06:21.111Z,9.50
2022-09-16T01:07:21.075Z,9.70
2022-09-16T01:08:21.066Z,10.20
2022-09-16T01:09:21.039Z,10.10
2022-09-16T01:10:21.046Z,10.40
2022-09-16T01:11:21.047Z,9.90
2022-09-16T01:12:21.014Z,9.80
2022-09-16T01:13:20.986Z,11.00
2022-09-16T01:14:20.994Z,11.30
2022-09-16T01:15:20.969Z,11.30
2022-09-16T01:16:22.136Z,10.40
2022-09-16T01:17:20.955Z,10.70
2022-09-16T01:18:20.928Z,11.00
2022-09-16T01:19:20.930Z,10.30
2022-09-16T01:20:20.905Z,9.40
2022-09-16T01:21:20.899Z,9.50
2022-09-16T01:22:20.918Z,9.50
2022-09-16T01:23:20.858Z,9.10
2022-09-16T01:24:20.862Z,9.10
2022-09-16T01:25:20.839Z,9.30
2022-09-16T01:26:21.818Z,9.30
2022-09-16T01:27:20.830Z,9.90
2022-09-16T01:28:20.809Z,9.90
2022-09-16T01:29:20.789Z,9.80
2022-09-16T01:30:20.778Z,10.10
2022-09-16T01:31:20.819Z,10.20
2022-09-16T01:32:20.760Z,9.80
2022-09-16T01:33:20.743Z,9.10
2022-09-16T01:34:20.732Z,8.60
2022-09-16T01:35:22.761Z,8.30
2022-09-16T01:36:20.708Z,8.30
2022-09-16T01:37:20.680Z,7.90
2022-09-16T01:38:20.684Z,7.70
2022-09-16T01:39:20.651Z,7.00
2022-09-16T01:40:20.689Z,6.80
2022-09-16T01:41:20.639Z,6.50
2022-09-16T01:42:20.646Z,6.70
2022-09-16T01:43:20.601Z,6.40
2022-09-16T01:44:20.609Z,6.90
2022-09-16T01:45:20.580Z,6.50
2022-09-16T01:46:20.695Z,6.50
2022-09-16T01:47:20.543Z,7.20
2022-09-16T01:48:20.551Z,7.30
2022-09-16T01:49:20.523Z,6.40
2022-09-16T01:50:20.513Z,6.30
2022-09-16T01:51:20.522Z,6.90
2022-09-16T01:52:21.483Z,6.50
2022-09-16T01:53:20.463Z,6.80
2022-09-16T01:54:20.473Z,6.50
2022-09-16T01:55:20.442Z,5.90
2022-09-16T01:56:20.423Z,6.70
2022-09-16T01:57:20.424Z,6.30
2022-09-16T01:58:20.415Z,5.90
2022-09-16T01:59:20.383Z,6.30
2022-09-16T02:00:20.379Z,7.10
2022-09-16T02:01:21.417Z,6.90
2022-09-16T02:02:21.462Z,6.20
2022-09-16T02:03:20.345Z,5.80
2022-09-16T02:04:20.334Z,6.70
2022-09-16T02:05:21.304Z,6.80
2022-09-16T02:06:20.317Z,6.60
2022-09-16T02:07:20.301Z,6.60
2022-09-16T02:08:20.275Z,7.00
2022-09-16T02:09:20.259Z,6.80
2022-09-16T02:10:20.246Z,6.70
2022-09-16T02:11:20.236Z,6.40
2022-09-16T02:12:20.235Z,7.00
2022-09-16T02:13:20.207Z,5.90
2022-09-16T02:14:20.209Z,5.70
2022-09-16T02:15:20.190Z,5.70
2022-09-16T02:16:20.321Z,5.90
2022-09-16T02:17:20.202Z,5.90
2022-09-16T02:18:20.195Z,6.80
2022-09-16T02:19:20.188Z,5.70
2022-09-16T02:21:30.349Z,6.00
2022-09-16T02:22:30.343Z,5.50
2022-09-16T02:23:30.358Z,6.60
2022-09-16T02:24:30.369Z,5.80
2022-09-16T02:25:52.390Z,5.70
2022-09-16T02:26:30.293Z,6.20
2022-09-16T02:27:30.281Z,6.00
2022-09-16T02:28:30.292Z,5.60
2022-09-16T02:29:30.231Z,5.70
2022-09-16T02:30:30.303Z,5.20
2022-09-16T02:31:30.307Z,5.40
2022-09-16T02:32:30.231Z,5.80
2022-09-16T02:33:30.222Z,5.40
2022-09-16T02:34:30.162Z,5.20
2022-09-16T02:35:30.142Z,5.60
2022-09-16T02:36:30.179Z,5.70
2022-09-16T02:37:30.147Z,5.50
2022-09-16T02:38:30.111Z,5.10
2022-09-16T02:39:30.153Z,5.40
2022-09-16T02:40:30.181Z,5.00
2022-09-16T02:41:30.083Z,5.20
2022-09-16T02:42:30.073Z,5.10
2022-09-16T02:43:30.058Z,5.30
2022-09-16T02:44:30.083Z,4.70
2022-09-16T02:45:30.091Z,5.10
2022-09-16T02:46:30.069Z,5.20
2022-09-16T02:47:30.001Z,5.50
2022-09-16T02:48:30.023Z,5.90
2022-09-16T02:49:30.029Z,5.60
2022-09-16T02:50:30.034Z,5.40
2022-09-16T02:51:30.064Z,5.90
2022-09-16T02:52:30.035Z,5.30
2022-09-16T02:53:29.956Z,5.90
2022-09-16T02:54:29.915Z,5.50
2022-09-16T02:55:29.957Z,5.60
2022-09-16T02:56:29.903Z,5.50
2022-09-16T02:57:29.970Z,5.70
2022-09-16T02:58:29.873Z,5.70
2022-09-16T02:59:29.880Z,5.70
2022-09-16T03:00:29.843Z,5.60
2022-09-16T03:01:29.980Z,6.30
2022-09-16T03:02:29.852Z,5.80
2022-09-16T03:03:29.806Z,5.50
2022-09-16T03:04:29.825Z,5.70
2022-09-16T03:05:30.844Z,5.50
2022-09-16T03:06:29.768Z,5.30
2022-09-16T03:07:29.768Z,5.50
2022-09-16T03:08:29.753Z,5.50
2022-09-16T03:09:29.758Z,5.50
2022-09-16T03:10:29.747Z,5.30
2022-09-16T03:11:30.559Z,5.60
2022-09-16T03:12:29.705Z,7.30
2022-09-16T03:13:29.658Z,6.60
2022-09-16T03:14:29.665Z,7.70
2022-09-16T03:15:29.638Z,6.60
2022-09-16T03:16:29.708Z,6.30
2022-09-16T03:17:29.616Z,5.90
2022-09-16T03:18:29.709Z,5.70
2022-09-16T03:19:29.576Z,6.00
2022-09-16T03:20:29.620Z,6.30
2022-09-16T03:21:29.564Z,5.80
2022-09-16T03:22:29.671Z,5.50
2022-09-16T03:23:29.529Z,6.10
2022-09-16T03:24:29.549Z,6.00
2022-09-16T03:25:29.512Z,5.90
2022-09-16T03:26:29.562Z,5.50
2022-09-16T03:27:29.502Z,5.90
2022-09-16T03:28:29.571Z,5.20
2022-09-16T03:29:29.478Z,5.10
2022-09-16T03:30:29.451Z,5.50
2022-09-16T03:31:29.555Z,5.00
2022-09-16T03:32:29.432Z,7.60
2022-09-16T03:33:33.169Z,6.80
2022-09-16T03:34:30.500Z,5.40
2022-09-16T03:35:29.437Z,5.60
2022-09-16T03:36:29.464Z,6.10
2022-09-16T03:37:29.485Z,5.60
2022-09-16T03:38:29.347Z,5.60
2022-09-16T03:39:29.347Z,5.60
2022-09-16T03:40:29.392Z,6.00
2022-09-16T03:41:29.306Z,5.50
2022-09-16T03:42:29.317Z,5.40
2022-09-16T03:43:29.378Z,5.80
2022-09-16T03:44:29.274Z,6.20
2022-09-16T03:45:29.278Z,5.90
2022-09-16T03:46:29.334Z,6.60
2022-09-16T03:47:29.244Z,5.90
2022-09-16T03:48:29.233Z,6.20
2022-09-16T03:49:29.192Z,5.80
2022-09-16T04:03:24.365Z,5.60
2022-09-16T04:04:24.300Z,6.60
2022-09-16T04:05:24.270Z,6.50
2022-09-16T04:06:26.304Z,5.70
2022-09-16T04:07:24.259Z,5.20
2022-09-16T04:08:24.249Z,5.80
2022-09-16T04:09:24.231Z,6.50
2022-09-16T04:10:24.219Z,6.00
2022-09-16T04:11:24.198Z,5.10
2022-09-16T04:12:24.219Z,6.00
2022-09-16T04:13:24.180Z,5.60
2022-09-16T04:14:24.161Z,5.70
2022-09-16T04:15:24.135Z,4.90
2022-09-16T04:16:24.179Z,5.70
2022-09-16T04:17:24.165Z,4.90
2022-09-16T04:18:24.113Z,5.70
2022-09-16T04:19:24.082Z,5.30
2022-09-16T04:20:24.101Z,4.90
2022-09-16T04:21:24.075Z,4.60
2022-09-16T04:22:24.085Z,5.60
2022-09-16T04:23:24.044Z,5.00
2022-09-16T04:24:24.031Z,4.70
2022-09-16T04:25:24.014Z,5.40
2022-09-16T04:26:24.010Z,4.90
2022-09-16T04:27:24.145Z,5.30
2022-09-16T04:28:23.984Z,5.10
2022-09-16T04:29:23.963Z,5.10
2022-09-16T04:30:23.946Z,5.20
2022-09-16T04:31:24.013Z,4.90
2022-09-16T04:32:23.951Z,4.90
2022-09-16T04:33:23.925Z,4.80
2022-09-16T04:34:23.888Z,5.20
2022-09-16T04:35:23.895Z,4.80
2022-09-16T04:36:23.886Z,5.10
2022-09-16T04:37:23.899Z,5.20
2022-09-16T04:38:23.854Z,4.80
2022-09-16T04:39:23.846Z,5.00
2022-09-16T04:40:23.906Z,4.80
2022-09-16T04:41:23.799Z,5.00
2022-09-16T04:42:23.822Z,5.00
2022-09-16T04:43:23.776Z,4.80
2022-09-16T04:44:23.767Z,5.00
2022-09-16T04:45:23.748Z,4.80
2022-09-16T04:46:23.834Z,5.00
2022-09-16T04:47:24.718Z,5.20
2022-09-16T04:48:23.716Z,5.70
2022-09-16T04:49:23.703Z,5.00
2022-09-16T04:50:23.677Z,4.90
2022-09-16T04:51:23.678Z,5.30
2022-09-16T04:52:24.668Z,5.10
2022-09-16T04:53:23.677Z,4.70
2022-09-16T04:54:23.650Z,5.20
2022-09-16T04:55:23.643Z,4.70
2022-09-16T04:56:23.620Z,5.00
2022-09-16T04:57:23.589Z,6.70
2022-09-16T04:58:23.607Z,10.80
2022-09-16T04:59:23.597Z,5.60
2022-09-16T05:00:23.581Z,5.20
2022-09-16T05:01:23.583Z,5.10
2022-09-16T05:02:23.541Z,4.90
2022-09-16T05:03:23.571Z,4.80
2022-09-16T05:04:23.503Z,5.20
2022-09-16T05:05:23.501Z,5.10
2022-09-16T05:06:23.481Z,5.20
2022-09-16T05:07:23.492Z,5.30
2022-09-16T05:08:23.461Z,5.30
2022-09-16T05:09:23.450Z,5.20
2022-09-16T05:10:23.434Z,4.70
2022-09-16T05:11:23.412Z,5.00
2022-09-16T05:12:23.397Z,5.40
2022-09-16T05:13:23.425Z,5.20
2022-09-16T05:14:23.374Z,5.30
2022-09-16T05:15:23.380Z,5.40
2022-09-16T05:16:23.411Z,5.00
2022-09-16T05:17:46.972Z,5.40
2022-09-16T05:18:24.334Z,5.00
2022-09-16T05:19:23.303Z,5.10
2022-09-16T05:20:23.323Z,5.60
2022-09-16T05:21:23.264Z,4.80
2022-09-16T05:22:23.276Z,5.10
2022-09-16T05:23:24.262Z,5.40
2022-09-16T05:24:23.258Z,5.80
2022-09-16T05:25:23.234Z,5.50
2022-09-16T05:26:23.224Z,5.60
2022-09-16T05:27:23.208Z,5.40
2022-09-16T05:28:24.197Z,5.10
2022-09-16T05:29:23.209Z,4.90
2022-09-16T05:30:26.061Z,5.00
2022-09-16T05:31:23.222Z,5.10
2022-09-16T05:32:23.149Z,4.90
2022-09-16T05:33:23.128Z,4.70
2022-09-16T05:34:23.138Z,4.80
2022-09-16T05:35:23.097Z,4.80
2022-09-16T05:36:23.108Z,4.90
2022-09-16T05:37:23.075Z,4.30
2022-09-16T05:38:23.085Z,4.90
2022-09-16T05:39:24.636Z,4.40
2022-09-16T05:40:23.147Z,4.30
2022-09-16T05:41:23.044Z,4.80
2022-09-16T05:42:23.019Z,4.60
2022-09-16T05:43:22.988Z,4.80
2022-09-16T05:44:23.006Z,4.50
2022-09-16T05:45:26.692Z,4.60
2022-09-16T05:46:24.089Z,4.30
2022-09-16T05:47:22.939Z,4.10
2022-09-16T05:48:22.938Z,4.50
2022-09-16T05:49:22.919Z,4.70
2022-09-16T05:50:22.918Z,4.50
2022-09-16T05:51:22.899Z,4.50
2022-09-16T05:52:22.879Z,4.50
2022-09-16T05:53:22.869Z,4.00
2022-09-16T05:54:22.889Z,4.50
2022-09-16T05:55:22.847Z,4.40
2022-09-16T05:56:22.850Z,4.10
2022-09-16T05:57:22.819Z,4.50
2022-09-16T05:58:22.809Z,4.40
2022-09-16T05:59:22.801Z,4.70
2022-09-16T06:00:22.779Z,4.40
2022-09-16T06:01:22.814Z,4.30
2022-09-16T06:02:22.800Z,4.10
2022-09-16T06:03:22.739Z,4.70
2022-09-16T06:04:22.742Z,4.30
2022-09-16T06:05:22.706Z,4.30
2022-09-16T06:06:22.717Z,4.70
2022-09-16T06:07:22.704Z,4.60
2022-09-16T06:08:22.714Z,4.10
2022-09-16T06:09:22.667Z,7.00
2022-09-16T06:10:22.674Z,4.80
2022-09-16T06:11:22.651Z,4.90
2022-09-16T06:12:22.620Z,4.80
2022-09-16T06:13:22.636Z,4.10
2022-09-16T06:14:22.602Z,3.90
2022-09-16T06:15:22.608Z,3.70
2022-09-16T06:16:22.606Z,4.00
2022-09-16T06:17:22.563Z,3.70
2022-09-16T06:18:22.545Z,3.50
2022-09-16T06:19:22.545Z,3.30
2022-09-16T06:20:22.520Z,3.40
2022-09-16T06:21:22.505Z,3.50
2022-09-16T06:22:22.513Z,3.40
2022-09-16T06:23:22.476Z,4.00
2022-09-16T06:24:23.497Z,3.70
2022-09-16T06:25:23.444Z,3.40
2022-09-16T06:26:22.452Z,3.70
2022-09-16T06:27:22.419Z,3.20
2022-09-16T06:28:22.442Z,3.40
2022-09-16T06:29:22.397Z,3.80
2022-09-16T06:30:22.413Z,3.50
2022-09-16T06:31:22.418Z,3.50
2022-09-16T06:32:22.386Z,3.30
2022-09-16T06:33:22.380Z,3.10
2022-09-16T06:34:22.359Z,3.60
2022-09-16T06:35:23.317Z,3.10
2022-09-16T06:36:22.332Z,3.40
2022-09-16T06:37:22.280Z,2.60
2022-09-16T06:38:22.290Z,3.70
2022-09-16T06:39:22.260Z,3.30
2022-09-16T06:40:22.356Z,2.90
2022-09-16T06:41:22.238Z,3.40
2022-09-16T06:42:22.239Z,2.90
2022-09-16T06:43:22.248Z,2.90
2022-09-16T06:44:22.210Z,3.00
2022-09-16T06:45:22.190Z,3.20
2022-09-16T06:46:22.235Z,3.10
2022-09-16T06:47:22.172Z,3.20
2022-09-16T06:48:22.151Z,2.60
2022-09-16T06:49:22.151Z,3.10
2022-09-16T06:50:22.130Z,3.30
2022-09-16T06:51:22.102Z,2.90
2022-09-16T06:52:22.102Z,2.80
2022-09-16T06:53:22.091Z,2.80
2022-09-16T06:54:22.083Z,2.60
2022-09-16T06:55:22.082Z,2.90
2022-09-16T06:56:22.075Z,3.40
2022-09-16T06:57:22.041Z,2.60
2022-09-16T06:58:22.047Z,3.00
2022-09-16T06:59:22.004Z,2.70
2022-09-16T07:00:22.014Z,2.60
2022-09-16T07:01:23.081Z,2.40
2022-09-16T07:02:22.069Z,2.80
2022-09-16T07:03:21.973Z,2.70
2022-09-16T07:04:21.963Z,2.40
2022-09-16T07:05:21.961Z,2.40
2022-09-16T07:06:21.924Z,2.60
2022-09-16T07:07:21.914Z,2.60
2022-09-16T07:08:21.891Z,2.50
2022-09-16T07:09:21.878Z,2.90
2022-09-16T07:10:21.876Z,2.60
2022-09-16T07:11:21.856Z,2.60
2022-09-16T07:12:21.847Z,2.70
2022-09-16T07:13:21.819Z,2.60
2022-09-16T07:14:21.826Z,2.80
2022-09-16T07:15:21.805Z,3.10
2022-09-16T07:16:21.864Z,3.00
2022-09-16T07:17:21.786Z,2.60
2022-09-16T07:18:21.775Z,2.70
2022-09-16T07:19:21.750Z,3.00
2022-09-16T07:20:21.745Z,2.70
2022-09-16T07:21:21.715Z,2.40
2022-09-16T07:22:22.724Z,2.10
2022-09-16T07:23:21.698Z,2.10
2022-09-16T07:24:21.706Z,2.10
2022-09-16T07:25:21.698Z,2.00
2022-09-16T07:26:21.667Z,1.90
2022-09-16T07:27:21.659Z,2.20
2022-09-16T07:28:21.665Z,2.20
2022-09-16T07:29:21.638Z,2.00
2022-09-16T07:30:21.628Z,1.90
2022-09-16T07:31:21.691Z,2.10
2022-09-16T07:32:21.579Z,2.20
2022-09-16T07:33:21.566Z,2.30
2022-09-16T07:34:21.572Z,2.30
2022-09-16T07:35:21.578Z,2.10
2022-09-16T07:36:21.528Z,2.10
2022-09-16T07:37:21.500Z,1.80
2022-09-16T07:38:21.491Z,1.80
2022-09-16T07:39:21.507Z,2.00
2022-09-16T07:40:21.572Z,1.80
2022-09-16T07:41:21.469Z,2.40
2022-09-16T07:42:21.461Z,1.90
2022-09-16T07:43:21.439Z,2.10
2022-09-16T07:44:21.430Z,1.80
2022-09-16T07:45:21.438Z,2.00
2022-09-16T07:46:21.465Z,1.70
2022-09-16T07:47:22.396Z,1.70
2022-09-16T07:48:21.392Z,1.80
2022-09-16T07:49:21.362Z,1.60
2022-09-16T07:50:21.351Z,1.90
2022-09-16T07:51:21.334Z,1.50
2022-09-16T07:52:21.327Z,1.70
2022-09-16T07:53:21.686Z,1.90
2022-09-16T07:54:21.294Z,1.60
2022-09-16T07:55:21.302Z,1.70
2022-09-16T07:56:21.265Z,1.50
2022-09-16T07:57:21.265Z,1.70
2022-09-16T07:58:21.250Z,1.50
2022-09-16T07:59:21.226Z,2.00
2022-09-16T08:00:21.216Z,1.50
2022-09-16T08:01:21.268Z,1.70
2022-09-16T08:02:21.341Z,1.60
2022-09-16T08:03:21.185Z,1.90
2022-09-16T08:04:21.195Z,1.50
2022-09-16T08:05:21.175Z,1.40
2022-09-16T08:06:21.116Z,1.60
2022-09-16T08:07:21.155Z,1.80
2022-09-16T08:08:21.113Z,1.40
2022-09-16T08:10:22.172Z,1.40
2022-09-16T08:11:21.087Z,1.70
2022-09-16T08:12:21.060Z,1.80
2022-09-16T08:13:22.037Z,1.60
2022-09-16T08:14:21.047Z,1.50
2022-09-16T08:15:22.053Z,1.40
2022-09-16T08:16:21.071Z,1.80
2022-09-16T08:17:20.999Z,1.70
2022-09-16T08:18:21.973Z,1.70
2022-09-16T08:19:20.978Z,1.70
2022-09-16T08:20:21.038Z,1.80
2022-09-16T08:21:20.947Z,1.30
2022-09-16T08:22:20.920Z,1.40
2022-09-16T08:23:20.918Z,1.50
2022-09-16T08:24:20.901Z,1.30
2022-09-16T08:25:20.909Z,1.30
2022-09-16T08:26:20.870Z,1.30
2022-09-16T08:27:20.878Z,1.70
2022-09-16T08:28:20.849Z,1.40
2022-09-16T08:29:20.842Z,1.80
2022-09-16T08:30:20.861Z,1.50
2022-09-16T08:31:20.836Z,1.50
2022-09-16T08:32:20.804Z,1.60
2022-09-16T08:33:20.782Z,1.40
2022-09-16T08:34:20.802Z,1.50
2022-09-16T08:35:20.752Z,1.30
2022-09-16T08:36:20.720Z,1.40
2022-09-16T08:37:20.731Z,1.30
2022-09-16T08:38:20.703Z,1.30
2022-09-16T08:39:20.726Z,1.50
2022-09-16T08:41:20.696Z,1.50
2022-09-16T08:42:23.282Z,1.40
2022-09-16T08:43:20.645Z,1.40
2022-09-16T08:44:21.633Z,1.20
2022-09-16T08:45:20.624Z,1.40
2022-09-16T08:46:20.614Z,1.30
2022-09-16T08:47:20.610Z,1.90
2022-09-16T08:48:21.571Z,1.50
2022-09-16T08:49:21.566Z,1.50
2022-09-16T08:50:20.610Z,1.20
2022-09-16T08:51:20.565Z,1.50
2022-09-16T08:52:20.543Z,1.30
2022-09-16T08:53:20.515Z,1.50
2022-09-16T08:54:21.495Z,1.40
2022-09-16T08:55:20.517Z,1.60
2022-09-16T08:56:20.492Z,1.60
2022-09-16T08:57:20.473Z,1.30
2022-09-16T08:58:20.428Z,1.40
2022-09-16T08:59:21.440Z,1.10
2022-09-16T09:00:20.548Z,1.20
2022-09-16T09:01:20.513Z,1.50
2022-09-16T09:02:20.831Z,1.50
2022-09-16T09:03:20.374Z,1.30
2022-09-16T09:04:21.359Z,1.40
2022-09-16T09:05:20.378Z,1.40
2022-09-16T09:06:20.350Z,1.60
2022-09-16T09:07:20.337Z,1.60
2022-09-16T09:08:20.350Z,1.30
2022-09-16T09:09:21.290Z,1.60
2022-09-16T09:10:20.318Z,1.40
2022-09-16T09:11:20.281Z,1.80
2022-09-16T09:12:21.089Z,1.40
2022-09-16T09:13:21.311Z,1.50
2022-09-16T09:14:20.248Z,1.40
2022-09-16T09:15:22.822Z,1.20
2022-09-16T09:16:20.238Z,1.70
2022-09-16T09:17:20.219Z,1.20
2022-09-16T09:18:20.202Z,1.30
2022-09-16T09:19:20.182Z,1.40
2022-09-16T09:20:20.223Z,1.70
2022-09-16T09:21:20.142Z,1.40
2022-09-16T09:22:20.143Z,1.50
2022-09-16T09:23:20.105Z,1.20
2022-09-16T09:24:20.093Z,1.60
2022-09-16T09:25:20.112Z,1.60
2022-09-16T09:26:20.062Z,1.20
2022-09-16T09:27:20.088Z,1.40
2022-09-16T09:28:20.041Z,1.50
2022-09-16T09:29:20.035Z,1.20
2022-09-16T09:30:20.025Z,1.50
2022-09-16T09:31:20.045Z,1.50
2022-09-16T09:32:20.017Z,1.40
2022-09-16T09:33:44.347Z,1.60
2022-09-16T09:34:20.973Z,1.30
2022-09-16T09:35:19.982Z,1.70
2022-09-16T09:36:19.947Z,1.20
2022-09-16T09:37:20.927Z,1.80
2022-09-16T09:38:19.926Z,1.30
2022-09-16T09:39:19.897Z,1.70
2022-09-16T09:40:20.894Z,1.40
2022-09-16T09:41:19.867Z,1.70
2022-09-16T09:42:19.863Z,1.50
2022-09-16T09:43:19.848Z,1.40
2022-09-16T09:44:19.831Z,1.40
2022-09-16T09:45:19.863Z,1.50
2022-09-16T09:46:19.826Z,1.30
2022-09-16T09:47:19.808Z,1.50
2022-09-16T10:03:52.095Z,1.90
2022-09-16T10:04:52.073Z,1.80
2022-09-16T10:05:52.065Z,1.70
2022-09-16T10:06:52.132Z,1.60
2022-09-16T10:07:52.127Z,1.70
2022-09-16T10:08:52.035Z,1.80
2022-09-16T10:09:52.027Z,1.50
2022-09-16T10:10:52.031Z,1.90
2022-09-16T10:11:52.007Z,1.70
2022-09-16T10:12:51.939Z,1.60
2022-09-16T10:13:51.956Z,1.70
2022-09-16T10:14:51.937Z,1.40
2022-09-16T10:15:54.871Z,1.60
2022-09-16T10:16:51.907Z,1.60
2022-09-16T10:17:51.909Z,1.40
2022-09-16T10:18:52.901Z,1.50
2022-09-16T10:19:51.869Z,1.40
2022-09-16T10:20:51.909Z,1.40
2022-09-16T10:21:51.864Z,1.40
2022-09-16T10:22:51.833Z,1.30
2022-09-16T10:23:51.823Z,1.60
2022-09-16T10:24:51.819Z,1.80
2022-09-16T10:25:51.809Z,1.60
2022-09-16T10:26:51.778Z,1.40
2022-09-16T10:27:51.791Z,1.40
2022-09-16T10:28:51.770Z,1.40
2022-09-16T10:29:51.788Z,1.40
2022-09-16T10:30:51.749Z,1.40
2022-09-16T10:31:51.798Z,1.50
2022-09-16T10:32:51.713Z,1.30
2022-09-16T10:33:52.680Z,1.70
2022-09-16T10:34:51.686Z,1.30
2022-09-16T10:35:51.671Z,1.70
2022-09-16T10:36:51.642Z,1.50
2022-09-16T10:37:51.654Z,1.60
2022-09-16T10:38:51.630Z,1.70
2022-09-16T10:39:51.645Z,1.50
2022-09-16T10:40:51.601Z,1.60
2022-09-16T10:41:51.581Z,1.50
2022-09-16T10:42:51.572Z,1.80
2022-09-16T10:43:51.551Z,1.90
2022-09-16T10:44:52.554Z,1.50
2022-09-16T10:45:51.567Z,1.30
2022-09-16T10:46:51.542Z,1.60
2022-09-16T10:47:51.511Z,1.20
2022-09-16T10:48:51.502Z,1.80
2022-09-16T10:49:51.494Z,1.40
2022-09-16T10:50:51.476Z,1.50
2022-09-16T10:51:51.455Z,1.50
2022-09-16T10:52:51.436Z,1.50
2022-09-16T10:53:51.838Z,1.80
2022-09-16T10:54:51.408Z,1.80
2022-09-16T10:55:51.397Z,1.70
2022-09-16T10:56:51.655Z,1.50
2022-09-16T10:57:51.376Z,1.90
2022-09-16T10:58:51.381Z,1.60
2022-09-16T10:59:53.356Z,1.40
2022-09-16T11:00:51.385Z,1.70
2022-09-16T11:01:51.618Z,1.90
2022-09-16T11:02:51.309Z,2.00
2022-09-16T11:03:51.309Z,1.80
2022-09-16T11:04:51.276Z,1.50
2022-09-16T11:05:51.267Z,1.60
2022-09-16T11:06:51.267Z,1.60
2022-09-16T11:07:51.267Z,1.90
2022-09-16T11:08:51.270Z,1.70
2022-09-16T11:09:51.338Z,1.60
2022-09-16T11:10:52.225Z,1.80
2022-09-16T11:11:51.192Z,1.70
2022-09-16T11:12:51.199Z,2.10
2022-09-16T11:13:51.259Z,1.70
2022-09-16T11:14:52.179Z,1.60
2022-09-16T11:15:51.233Z,1.40
2022-09-16T11:16:51.168Z,1.70
2022-09-16T11:17:51.171Z,1.50
2022-09-16T11:18:52.973Z,1.70
2022-09-16T11:19:52.133Z,1.70
2022-09-16T11:20:51.120Z,1.70
2022-09-16T11:21:51.100Z,1.50
2022-09-16T11:22:51.100Z,1.80
2022-09-16T11:23:51.040Z,1.70
2022-09-16T11:24:51.121Z,1.90
2022-09-16T11:25:51.060Z,1.80
2022-09-16T11:26:52.056Z,1.90
2022-09-16T11:27:51.051Z,1.70
2022-09-16T11:28:50.973Z,1.60
2022-09-16T11:29:51.053Z,1.60
2022-09-16T11:30:54.392Z,1.60
2022-09-16T11:31:51.165Z,1.70
2022-09-16T11:33:12.124Z,1.60
2022-09-16T11:33:51.174Z,1.80
2022-09-16T11:34:51.451Z,1.60
2022-09-16T11:35:51.387Z,1.70
2022-09-16T11:37:13.602Z,1.40
2022-09-16T11:37:53.423Z,1.50
2022-09-16T11:38:51.005Z,1.60
2022-09-16T11:39:50.914Z,1.50
2022-09-16T11:40:52.624Z,1.80
2022-09-16T11:41:53.040Z,1.40
2022-09-16T11:42:51.331Z,1.40
2022-09-16T11:43:50.781Z,1.60
2022-09-16T11:44:50.782Z,1.60
2022-09-16T11:45:50.785Z,1.80
2022-09-16T11:46:50.957Z,1.40
2022-09-16T11:47:50.748Z,1.40
2022-09-16T11:48:50.754Z,2.10
2022-09-16T11:49:50.686Z,1.70
2022-09-16T11:50:50.730Z,1.70
2022-09-16T11:51:50.800Z,1.60
2022-09-16T11:52:51.111Z,1.70
2022-09-16T11:53:50.635Z,1.80
2022-09-16T11:54:50.708Z,1.60
2022-09-16T11:55:50.802Z,1.50
2022-09-16T11:56:50.727Z,1.40
2022-09-16T11:57:50.639Z,1.60
2022-09-16T11:58:50.641Z,1.90
2022-09-16T11:59:50.588Z,1.40
2022-09-16T12:00:50.710Z,1.50
2022-09-16T12:01:50.647Z,2.60
2022-09-16T12:02:50.571Z,1.90
2022-09-16T12:03:50.518Z,1.60
2022-09-16T12:04:52.584Z,1.80
2022-09-16T12:05:50.510Z,2.20
2022-09-16T12:06:50.601Z,1.80
2022-09-16T12:07:50.490Z,1.60
2022-09-16T12:08:50.452Z,1.70
2022-09-16T12:09:50.502Z,1.60
2022-09-16T12:10:50.441Z,1.40
2022-09-16T12:11:50.411Z,1.40
2022-09-16T12:12:50.438Z,1.50
2022-09-16T12:13:52.038Z,1.60
2022-09-16T12:14:50.451Z,1.90
2022-09-16T12:15:50.461Z,1.90
2022-09-16T12:16:50.371Z,1.70
2022-09-16T12:17:50.363Z,1.50
2022-09-16T12:18:50.371Z,1.70
2022-09-16T12:19:50.380Z,1.60
2022-09-16T12:20:51.346Z,1.90
2022-09-16T12:21:51.088Z,1.70
2022-09-16T12:22:51.304Z,1.50
2022-09-16T12:23:50.291Z,1.50
2022-09-16T12:24:50.317Z,1.30
2022-09-16T12:25:50.357Z,1.40
2022-09-16T12:26:51.228Z,1.60
2022-09-16T12:27:50.230Z,1.50
2022-09-16T12:28:50.235Z,1.70
2022-09-16T12:29:50.247Z,1.50
2022-09-16T12:30:50.354Z,1.30
2022-09-16T12:31:50.357Z,1.60
2022-09-16T12:32:50.157Z,1.70
2022-09-16T12:33:50.166Z,1.60
2022-09-16T12:34:50.483Z,1.80
2022-09-16T12:35:50.223Z,1.80
2022-09-16T12:36:50.197Z,1.70
2022-09-16T12:37:50.196Z,1.60
2022-09-16T12:38:50.083Z,1.40
2022-09-16T12:39:50.169Z,1.20
2022-09-16T12:40:50.151Z,1.70
2022-09-16T12:41:50.107Z,1.50
2022-09-16T12:42:52.104Z,1.80
2022-09-16T12:43:50.022Z,1.40
2022-09-16T12:45:12.049Z,1.40
2022-09-16T12:45:49.985Z,1.60
2022-09-16T12:46:52.048Z,1.70
2022-09-16T12:47:50.049Z,1.70
2022-09-16T12:48:49.941Z,1.60
2022-09-16T12:50:11.988Z,1.40
2022-09-16T12:50:49.960Z,1.90
2022-09-16T12:51:50.667Z,1.80
2022-09-16T12:52:49.991Z,1.70
2022-09-16T12:53:49.881Z,1.70
2022-09-16T12:55:06.693Z,1.60
2022-09-16T12:55:51.873Z,1.60
2022-09-16T12:56:49.849Z,1.40
2022-09-16T12:57:49.829Z,1.70
2022-09-16T12:58:49.948Z,1.50
2022-09-16T12:59:49.794Z,2.00
2022-09-16T13:00:49.880Z,1.90
2022-09-16T13:01:49.981Z,2.00
2022-09-16T13:02:49.911Z,2.20
2022-09-16T13:03:49.906Z,1.70
2022-09-16T13:04:49.756Z,2.00
2022-09-16T13:05:49.725Z,1.80
2022-09-16T13:06:51.747Z,2.30
2022-09-16T13:07:49.787Z,2.20
2022-09-16T13:08:49.700Z,2.00
2022-09-16T13:09:49.682Z,1.80
2022-09-16T13:11:12.112Z,1.60
2022-09-16T13:12:50.638Z,1.50
2022-09-16T13:13:49.708Z,1.50
2022-09-16T13:14:49.627Z,1.60
2022-09-16T13:15:49.703Z,2.10
2022-09-16T13:16:49.651Z,1.70
2022-09-16T13:17:49.662Z,1.90
2022-09-16T13:18:49.648Z,1.60
2022-09-16T13:19:49.563Z,1.60
2022-09-16T13:20:49.527Z,1.50
2022-09-16T13:21:49.535Z,1.60
2022-09-16T13:22:50.600Z,1.50
2022-09-16T13:23:49.470Z,2.00
2022-09-16T13:24:49.480Z,1.90
2022-09-16T13:25:50.562Z,1.80
2022-09-16T13:26:49.420Z,1.80
2022-09-16T13:28:59.688Z,1.70
2022-09-16T13:30:20.694Z,1.90
2022-09-16T13:31:07.237Z,1.60
2022-09-16T13:32:07.154Z,1.70
2022-09-16T13:33:08.357Z,2.00
2022-09-16T13:34:08.305Z,1.30
2022-09-16T13:35:07.114Z,1.50
2022-09-16T13:36:00.648Z,1.90
2022-09-16T13:37:01.667Z,1.70
2022-09-16T13:38:08.067Z,1.60
2022-09-16T13:39:00.629Z,1.50
2022-09-16T13:39:59.545Z,1.40
2022-09-16T13:41:08.225Z,1.80
2022-09-16T13:42:07.020Z,1.70
2022-09-16T13:43:07.018Z,1.50
2022-09-16T13:44:06.998Z,1.50
2022-09-16T13:44:59.474Z,1.60
2022-09-16T13:46:08.257Z,1.60
2022-09-16T13:47:06.987Z,1.50
2022-09-16T13:48:06.973Z,1.50
2022-09-16T13:48:59.423Z,1.60
2022-09-16T13:49:59.407Z,1.80
2022-09-16T13:50:59.432Z,1.60